PDA007 UKWW-UKBB
Flight info
| Callsign | PDA007 |
|---|---|
| Flight time | 0h 29m |
| Altitude | 21000 |
| Route | POGER Q545 SLV |
| Aircraft | A320/M-VD/A |
Departure
| Time | 2026-04-25 14:45 |
|---|---|
| Airport | Vinnytsia/Gavyryshivka International Airport (UKWW) |
Arrival
| Time | 2026-04-25 15:15 |
|---|---|
| Airport | Boryspil International Airport (UKBB) |
| Time | Latitude | Longitude | Altitude | Speed | Heading |
|---|---|---|---|---|---|
| 2026-04-25 14:35 | 49.24370 | 28.60652 | 978 ft | 0 kts | 229° |
| 2026-04-25 14:36 | 49.24369 | 28.60650 | 978 ft | 1 kts | 229° |
| 2026-04-25 14:37 | 49.24364 | 28.60641 | 981 ft | 2 kts | 229° |
| 2026-04-25 14:37 | 49.24354 | 28.60625 | 980 ft | 3 kts | 228° |
| 2026-04-25 14:37 | 49.24339 | 28.60599 | 975 ft | 4 kts | 228° |
| 2026-04-25 14:37 | 49.24336 | 28.60593 | 974 ft | 0 kts | 228° |
| 2026-04-25 14:40 | 49.24333 | 28.60592 | 983 ft | 0 kts | 210° |
| 2026-04-25 14:40 | 49.24331 | 28.60594 | 983 ft | 0 kts | 179° |
| 2026-04-25 14:40 | 49.24326 | 28.60603 | 986 ft | 3 kts | 144° |
| 2026-04-25 14:41 | 49.24303 | 28.60643 | 976 ft | 7 kts | 120° |
| 2026-04-25 14:41 | 49.24312 | 28.60735 | 978 ft | 11 kts | 53° |
| 2026-04-25 14:41 | 49.24373 | 28.60845 | 977 ft | 16 kts | 48° |
| 2026-04-25 14:41 | 49.24457 | 28.60988 | 977 ft | 20 kts | 48° |
| 2026-04-25 14:42 | 49.24422 | 28.61148 | 980 ft | 18 kts | 139° |
| 2026-04-25 14:42 | 49.24390 | 28.61189 | 979 ft | 18 kts | 139° |
| 2026-04-25 14:42 | 49.24221 | 28.61426 | 981 ft | 23 kts | 138° |
| 2026-04-25 14:42 | 49.24097 | 28.61595 | 967 ft | 25 kts | 138° |
| 2026-04-25 14:43 | 49.23960 | 28.61781 | 970 ft | 27 kts | 136° |
| 2026-04-25 14:43 | 49.23815 | 28.61982 | 974 ft | 28 kts | 137° |
| 2026-04-25 14:43 | 49.23673 | 28.62179 | 976 ft | 27 kts | 138° |
| 2026-04-25 14:43 | 49.23538 | 28.62354 | 977 ft | 24 kts | 141° |
| 2026-04-25 14:44 | 49.23449 | 28.62442 | 969 ft | 10 kts | 152° |
| 2026-04-25 14:44 | 49.23451 | 28.62471 | 968 ft | 1 kts | 341° |
| 2026-04-25 14:44 | 49.23457 | 28.62461 | 968 ft | 3 kts | 320° |
| 2026-04-25 14:44 | 49.23595 | 28.62276 | 975 ft | 60 kts | 317° |
| 2026-04-25 14:45 | 49.24057 | 28.61641 | 969 ft | 116 kts | 319° |
| 2026-04-25 14:45 | 49.24733 | 28.60627 | 1002 ft | 153 kts | 307° |
| 2026-04-25 14:45 | 49.25389 | 28.59552 | 1894 ft | 128 kts | 313° |
| 2026-04-25 14:45 | 49.26102 | 28.58671 | 2252 ft | 140 kts | 319° |
| 2026-04-25 14:46 | 49.26659 | 28.58121 | 2351 ft | 148 kts | 324° |
| 2026-04-25 14:46 | 49.28076 | 28.57356 | 2708 ft | 182 kts | 352° |
| 2026-04-25 14:46 | 49.29400 | 28.57708 | 2953 ft | 208 kts | 18° |
| 2026-04-25 14:46 | 49.30577 | 28.59076 | 3219 ft | 224 kts | 53° |
| 2026-04-25 14:47 | 49.31105 | 28.61415 | 3521 ft | 248 kts | 90° |
| 2026-04-25 14:47 | 49.31067 | 28.62318 | 3641 ft | 254 kts | 104° |
| 2026-04-25 14:47 | 49.29376 | 28.66145 | 4593 ft | 275 kts | 142° |
| 2026-04-25 14:47 | 49.28362 | 28.67378 | 5151 ft | 278 kts | 146° |
| 2026-04-25 14:48 | 49.26973 | 28.69469 | 5992 ft | 288 kts | 122° |
| 2026-04-25 14:48 | 49.26429 | 28.72420 | 6821 ft | 294 kts | 88° |
| 2026-04-25 14:48 | 49.26984 | 28.75410 | 7647 ft | 294 kts | 54° |
| 2026-04-25 14:48 | 49.28367 | 28.77670 | 8503 ft | 292 kts | 35° |
| 2026-04-25 14:49 | 49.29995 | 28.79524 | 9383 ft | 293 kts | 32° |
| 2026-04-25 14:49 | 49.31655 | 28.81372 | 10131 ft | 300 kts | 31° |
| 2026-04-25 14:49 | 49.33416 | 28.83312 | 10370 ft | 323 kts | 31° |
| 2026-04-25 14:49 | 49.35255 | 28.85501 | 10543 ft | 348 kts | 37° |
| 2026-04-25 14:50 | 49.37031 | 28.88122 | 11041 ft | 359 kts | 42° |
| 2026-04-25 14:50 | 49.38737 | 28.90959 | 11688 ft | 363 kts | 44° |
| 2026-04-25 14:50 | 49.40414 | 28.93886 | 12362 ft | 367 kts | 45° |
| 2026-04-25 14:50 | 49.42106 | 28.96853 | 13015 ft | 371 kts | 44° |
| 2026-04-25 14:51 | 49.43828 | 28.99827 | 13691 ft | 374 kts | 43° |
| 2026-04-25 14:51 | 49.45590 | 29.02808 | 14285 ft | 378 kts | 43° |
| 2026-04-25 14:51 | 49.47355 | 29.05752 | 14848 ft | 381 kts | 42° |
| 2026-04-25 14:51 | 49.49170 | 29.08750 | 15433 ft | 384 kts | 42° |
| 2026-04-25 14:52 | 49.51007 | 29.11765 | 15996 ft | 387 kts | 42° |
| 2026-04-25 14:52 | 49.52862 | 29.14788 | 16551 ft | 389 kts | 39° |
| 2026-04-25 14:52 | 49.54922 | 29.17467 | 17101 ft | 387 kts | 30° |
| 2026-04-25 14:52 | 49.56456 | 29.18960 | 17477 ft | 386 kts | 23° |
| 2026-04-25 14:53 | 49.59701 | 29.21155 | 18209 ft | 385 kts | 15° |
| 2026-04-25 14:53 | 49.62212 | 29.22649 | 18714 ft | 388 kts | 16° |
| 2026-04-25 14:53 | 49.64738 | 29.24163 | 19231 ft | 391 kts | 16° |
| 2026-04-25 14:53 | 49.67277 | 29.25691 | 19761 ft | 394 kts | 16° |
| 2026-04-25 14:54 | 49.69846 | 29.27240 | 20282 ft | 397 kts | 16° |
| 2026-04-25 14:54 | 49.72418 | 29.28794 | 20723 ft | 400 kts | 16° |
| 2026-04-25 14:54 | 49.75015 | 29.30363 | 20839 ft | 403 kts | 16° |
| 2026-04-25 14:54 | 49.77678 | 29.31966 | 20859 ft | 418 kts | 16° |
| 2026-04-25 14:55 | 49.80425 | 29.33616 | 20859 ft | 426 kts | 16° |
| 2026-04-25 14:55 | 49.83200 | 29.35292 | 20861 ft | 429 kts | 16° |
| 2026-04-25 14:55 | 49.85977 | 29.36980 | 20858 ft | 429 kts | 17° |
| 2026-04-25 14:55 | 49.88757 | 29.38679 | 20861 ft | 429 kts | 17° |
| 2026-04-25 14:56 | 49.91536 | 29.40381 | 20870 ft | 430 kts | 17° |
| 2026-04-25 14:56 | 49.94279 | 29.42063 | 20849 ft | 429 kts | 17° |
| 2026-04-25 14:56 | 49.97011 | 29.43742 | 20781 ft | 413 kts | 17° |
| 2026-04-25 14:56 | 49.99644 | 29.45360 | 20379 ft | 403 kts | 16° |
| 2026-04-25 14:57 | 50.02237 | 29.46940 | 19845 ft | 398 kts | 16° |
| 2026-04-25 14:57 | 50.04809 | 29.48503 | 19295 ft | 395 kts | 16° |
| 2026-04-25 14:57 | 50.07354 | 29.50056 | 18775 ft | 392 kts | 16° |
| 2026-04-25 14:57 | 50.09885 | 29.51608 | 18242 ft | 389 kts | 16° |
| 2026-04-25 14:58 | 50.12396 | 29.53151 | 17646 ft | 386 kts | 16° |
| 2026-04-25 14:58 | 50.14817 | 29.54972 | 17086 ft | 388 kts | 25° |
| 2026-04-25 14:58 | 50.17038 | 29.57386 | 16526 ft | 390 kts | 34° |
| 2026-04-25 14:58 | 50.18985 | 29.60351 | 15958 ft | 393 kts | 46° |
| 2026-04-25 14:59 | 50.20631 | 29.63749 | 15389 ft | 391 kts | 48° |
| 2026-04-25 14:59 | 50.22261 | 29.67124 | 14832 ft | 388 kts | 48° |
| 2026-04-25 14:59 | 50.23886 | 29.70467 | 14290 ft | 384 kts | 48° |
| 2026-04-25 14:59 | 50.25495 | 29.73779 | 13761 ft | 381 kts | 48° |
| 2026-04-25 15:00 | 50.27085 | 29.77065 | 13182 ft | 377 kts | 48° |
| 2026-04-25 15:00 | 50.28657 | 29.80333 | 12585 ft | 375 kts | 49° |
| 2026-04-25 15:00 | 50.30219 | 29.83583 | 11993 ft | 372 kts | 49° |
| 2026-04-25 15:00 | 50.31767 | 29.86815 | 11421 ft | 370 kts | 49° |
| 2026-04-25 15:01 | 50.33301 | 29.90031 | 10835 ft | 368 kts | 50° |
| 2026-04-25 15:01 | 50.34828 | 29.93239 | 10271 ft | 367 kts | 50° |
| 2026-04-25 15:01 | 50.36347 | 29.96438 | 9724 ft | 365 kts | 50° |
| 2026-04-25 15:01 | 50.37827 | 29.99561 | 9566 ft | 351 kts | 50° |
| 2026-04-25 15:02 | 50.39257 | 30.02581 | 9428 ft | 338 kts | 50° |
| 2026-04-25 15:02 | 50.40632 | 30.05485 | 9290 ft | 326 kts | 50° |
| 2026-04-25 15:02 | 50.41964 | 30.08299 | 9162 ft | 316 kts | 50° |
| 2026-04-25 15:02 | 50.43258 | 30.11030 | 9003 ft | 307 kts | 50° |
| 2026-04-25 15:03 | 50.44524 | 30.13697 | 8730 ft | 303 kts | 50° |
| 2026-04-25 15:03 | 50.45781 | 30.16345 | 8425 ft | 301 kts | 50° |
| 2026-04-25 15:03 | 50.47029 | 30.18980 | 8125 ft | 300 kts | 50° |
| 2026-04-25 15:03 | 50.48270 | 30.21608 | 7806 ft | 299 kts | 50° |
| 2026-04-25 15:04 | 50.49503 | 30.24225 | 7478 ft | 298 kts | 50° |
| 2026-04-25 15:04 | 50.50628 | 30.26958 | 7152 ft | 299 kts | 63° |
| 2026-04-25 15:04 | 50.51439 | 30.29892 | 6829 ft | 298 kts | 65° |
| 2026-04-25 15:04 | 50.52261 | 30.32886 | 6522 ft | 297 kts | 65° |
| 2026-04-25 15:05 | 50.53076 | 30.35853 | 6214 ft | 295 kts | 65° |
| 2026-04-25 15:05 | 50.53885 | 30.38812 | 5898 ft | 294 kts | 65° |
| 2026-04-25 15:05 | 50.54688 | 30.41761 | 5588 ft | 293 kts | 65° |
| 2026-04-25 15:06 | 50.56270 | 30.47594 | 5099 ft | 284 kts | 65° |
| 2026-04-25 15:06 | 50.57031 | 30.50403 | 4969 ft | 276 kts | 65° |
| 2026-04-25 15:06 | 50.57775 | 30.53146 | 4774 ft | 270 kts | 65° |
| 2026-04-25 15:06 | 50.58511 | 30.55856 | 4513 ft | 269 kts | 65° |
| 2026-04-25 15:07 | 50.59232 | 30.58524 | 4361 ft | 261 kts | 65° |
| 2026-04-25 15:07 | 50.59934 | 30.61133 | 4135 ft | 257 kts | 65° |
| 2026-04-25 15:07 | 50.60623 | 30.63706 | 3893 ft | 253 kts | 68° |
| 2026-04-25 15:07 | 50.60940 | 30.66394 | 3613 ft | 252 kts | 94° |
| 2026-04-25 15:08 | 50.60529 | 30.69044 | 3314 ft | 248 kts | 115° |
| 2026-04-25 15:08 | 50.59901 | 30.71559 | 3091 ft | 245 kts | 115° |
| 2026-04-25 15:08 | 50.59290 | 30.74029 | 2954 ft | 239 kts | 114° |
| 2026-04-25 15:08 | 50.58694 | 30.76436 | 2839 ft | 234 kts | 114° |
| 2026-04-25 15:09 | 50.58116 | 30.78772 | 2800 ft | 223 kts | 115° |
| 2026-04-25 15:09 | 50.57563 | 30.81004 | 2804 ft | 217 kts | 114° |
| 2026-04-25 15:09 | 50.56457 | 30.85438 | 2805 ft | 217 kts | 115° |
| 2026-04-25 15:10 | 50.55900 | 30.87652 | 2803 ft | 218 kts | 116° |
| 2026-04-25 15:10 | 50.55132 | 30.89620 | 2807 ft | 211 kts | 137° |
| 2026-04-25 15:10 | 50.52697 | 30.91740 | 2810 ft | 197 kts | 178° |
| 2026-04-25 15:11 | 50.51335 | 30.91776 | 2807 ft | 193 kts | 189° |
| 2026-04-25 15:11 | 50.49985 | 30.91675 | 2810 ft | 194 kts | 189° |
| 2026-04-25 15:11 | 50.48657 | 30.91577 | 2802 ft | 194 kts | 189° |
| 2026-04-25 15:12 | 50.45967 | 30.91378 | 2401 ft | 192 kts | 188° |
| 2026-04-25 15:12 | 50.44638 | 30.91280 | 2149 ft | 190 kts | 187° |
| 2026-04-25 15:12 | 50.43339 | 30.91186 | 1908 ft | 183 kts | 187° |
| 2026-04-25 15:12 | 50.42918 | 30.91155 | 1824 ft | 178 kts | 187° |
| 2026-04-25 15:13 | 50.40991 | 30.91015 | 1444 ft | 155 kts | 187° |
| 2026-04-25 15:13 | 50.38962 | 30.90861 | 967 ft | 141 kts | 186° |
| 2026-04-25 15:13 | 50.37994 | 30.90792 | 815 ft | 137 kts | 185° |
| 2026-04-25 15:14 | 50.37049 | 30.90727 | 628 ft | 135 kts | 186° |
| 2026-04-25 15:14 | 50.36106 | 30.90662 | 474 ft | 136 kts | 186° |
| 2026-04-25 15:14 | 50.35236 | 30.90561 | 423 ft | 109 kts | 186° |
| 2026-04-25 15:14 | 50.34588 | 30.90517 | 430 ft | 76 kts | 181° |
| 2026-04-25 15:15 | 50.34163 | 30.90497 | 426 ft | 50 kts | 182° |
| 2026-04-25 15:15 | 50.33849 | 30.90474 | 425 ft | 41 kts | 182° |
| 2026-04-25 15:15 | 50.33610 | 30.90459 | 430 ft | 32 kts | 182° |
| 2026-04-25 15:15 | 50.33399 | 30.90448 | 424 ft | 24 kts | 183° |
| 2026-04-25 15:16 | 50.33318 | 30.90336 | 427 ft | 9 kts | 256° |
| 2026-04-25 15:16 | 50.33317 | 30.90296 | 436 ft | 0 kts | 270° |
| 2026-04-25 15:17 | 50.33317 | 30.90254 | 436 ft | 5 kts | 271° |
| 2026-04-25 15:17 | 50.33319 | 30.90185 | 436 ft | 8 kts | 273° |
| 2026-04-25 15:17 | 50.33323 | 30.90080 | 428 ft | 11 kts | 273° |
| 2026-04-25 15:18 | 50.33326 | 30.89944 | 436 ft | 14 kts | 271° |
| 2026-04-25 15:18 | 50.33332 | 30.89734 | 436 ft | 11 kts | 277° |
| 2026-04-25 15:18 | 50.33368 | 30.89668 | 430 ft | 8 kts | 352° |
| 2026-04-25 15:19 | 50.33419 | 30.89670 | 434 ft | 5 kts | 0° |
| 2026-04-25 15:19 | 50.33421 | 30.89670 | 425 ft | 1 kts | 0° |
| 2026-04-25 15:19 | 50.33429 | 30.89670 | 427 ft | 0 kts | 0° |